Time;durP1;ratioP1;P1;durP2;ratioP2;P2;SDS_P1;SDS_P2;PMS_P1;PMS_P2;Temp;Humidity;BMP_temperature;BMP_pressure;BME280_temperature;BME280_humidity;BME280_pressure;Samples;Min_cycle;Max_cycle;Signal;HPM_P1;HPM_P2
2024/03/13 00:00:24;;;;;;;15.45;8.30;;;;;;;4.12;100.00;96330.50;1042758;28;20063;-66
2024/03/13 00:01:13;;;;;;;16.70;8.35;;;;;;;4.13;100.00;96321.72;1041821;28;20787;-66
2024/03/13 00:02:02;;;;;;;17.77;8.02;;;;;;;4.12;100.00;96325.31;1032436;28;20268;-66
2024/03/13 00:02:53;;;;;;;18.67;8.48;;;;;;;4.12;100.00;96320.13;1035492;28;20638;-67
2024/03/13 00:03:42;;;;;;;15.55;8.30;;;;;;;4.11;100.00;96326.31;1035744;28;20336;-68
2024/03/13 00:04:41;;;;;;;18.83;8.48;;;;;;;4.12;100.00;96325.31;1043961;28;20036;-68
2024/03/13 00:05:30;;;;;;;17.52;8.00;;;;;;;4.08;100.00;96311.16;1043678;28;20246;-66
2024/03/13 00:06:21;;;;;;;19.23;9.10;;;;;;;4.13;100.00;96319.13;1038040;28;21013;-68
2024/03/13 00:07:10;;;;;;;19.30;9.68;;;;;;;4.08;100.00;96317.13;1036854;28;20364;-66
2024/03/13 00:08:01;;;;;;;17.77;8.38;;;;;;;4.13;100.00;96313.94;1042608;28;20048;-66
2024/03/13 00:08:51;;;;;;;20.38;8.55;;;;;;;4.09;100.00;96310.97;1039630;28;20263;-66
2024/03/13 00:09:46;;;;;;;16.95;8.45;;;;;;;4.15;100.00;96324.91;1027844;28;20081;-67
2024/03/13 00:10:35;;;;;;;19.85;9.02;;;;;;;4.15;100.00;96320.50;1028608;28;20779;-67
2024/03/13 00:11:26;;;;;;;18.38;8.70;;;;;;;4.16;100.00;96324.72;1035276;28;20287;-64
2024/03/13 00:12:15;;;;;;;;;;;;;;;4.18;100.00;96321.91;1041205;28;20254;-67
2024/03/13 00:13:04;;;;;;;20.52;8.88;;;;;;;4.17;100.00;96315.91;1043632;28;19966;-66
2024/03/13 00:13:55;;;;;;;15.93;8.05;;;;;;;4.21;100.00;96329.28;1043029;28;20251;-66
2024/03/13 00:14:50;;;;;;;19.55;8.85;;;;;;;4.17;100.00;96312.53;1042196;28;20280;-65
2024/03/13 00:15:39;;;;;;;19.17;9.43;;;;;;;4.20;100.00;96319.91;1042587;28;20043;-66
2024/03/13 00:16:31;;;;;;;20.02;9.50;;;;;;;4.22;100.00;96325.66;1042896;28;20343;-66
2024/03/13 00:17:20;;;;;;;18.73;9.40;;;;;;;4.25;100.00;96327.84;1039356;28;20260;-66
2024/03/13 00:18:10;;;;;;;19.23;8.98;;;;;;;4.26;100.00;96324.28;1037614;28;20279;-66
2024/03/13 00:18:59;;;;;;;20.67;9.32;;;;;;;4.25;100.00;96331.25;1039285;28;20699;-65
2024/03/13 00:19:54;;;;;;;20.50;9.35;;;;;;;4.23;100.00;96322.09;1044087;28;20294;-66
2024/03/13 00:20:44;;;;;;;17.20;9.10;;;;;;;4.25;100.00;96314.84;1032328;28;20685;-67
2024/03/13 00:21:35;;;;;;;17.30;8.45;;;;;;;4.28;100.00;96327.44;1027410;28;20322;-66
2024/03/13 00:22:25;;;;;;;18.38;9.23;;;;;;;4.19;100.00;96319.09;1030700;28;20085;-67
2024/03/13 00:23:15;;;;;;;19.25;9.18;;;;;;;4.23;100.00;96322.09;1035179;28;20788;-66
2024/03/13 00:24:05;;;;;;;20.65;9.27;;;;;;;4.26;100.00;96319.06;1024470;28;20310;-66
2024/03/13 00:24:56;;;;;;;17.58;9.00;;;;;;;4.20;100.00;96317.31;1035106;28;20336;-66
2024/03/13 00:25:46;;;;;;;23.65;9.07;;;;;;;4.25;100.00;96320.06;1035643;28;20379;-67
2024/03/13 00:26:35;;;;;;;17.52;9.30;;;;;;;4.24;100.00;96321.88;1039602;28;20279;-67
2024/03/13 00:27:24;;;;;;;20.40;8.45;;;;;;;4.24;100.00;96321.06;1038407;28;20259;-66
2024/03/13 00:28:13;;;;;;;19.48;8.63;;;;;;;4.24;100.00;96318.47;1032484;28;20296;-66
2024/03/13 00:29:04;;;;;;;18.67;9.52;;;;;;;4.24;100.00;96318.47;1035027;28;20316;-67
2024/03/13 00:29:53;;;;;;;16.90;9.05;;;;;;;4.24;100.00;96321.06;1031407;28;20251;-67
2024/03/13 00:30:42;;;;;;;22.05;9.27;;;;;;;4.22;100.00;96317.88;1038973;28;20091;-66
2024/03/13 00:31:31;;;;;;;20.75;8.32;;;;;;;4.10;100.00;96299.56;1035380;28;20835;-68
2024/03/13 00:32:23;;;;;;;20.38;8.68;;;;;;;4.24;100.00;96310.69;1042992;28;20325;-66
2024/03/13 00:33:12;;;;;;;18.73;8.98;;;;;;;4.21;100.00;96313.69;1033154;28;20404;-67
2024/03/13 00:34:01;;;;;;;19.48;9.40;;;;;;;4.22;100.00;96315.28;1035336;28;20324;-67
2024/03/13 00:34:50;;;;;;;18.02;9.18;;;;;;;4.23;100.00;96314.28;1035574;28;20440;-66
2024/03/13 00:35:40;;;;;;;20.90;9.65;;;;;;;4.21;100.00;96313.69;1034403;28;20253;-67
2024/03/13 00:36:29;;;;;;;18.88;8.95;;;;;;;4.22;100.00;96310.06;1035277;28;20248;-67
2024/03/13 00:37:18;;;;;;;21.55;9.75;;;;;;;4.21;100.00;96304.09;1035250;28;20712;-66
2024/03/13 00:38:07;;;;;;;17.05;8.15;;;;;;;4.19;100.00;96295.72;1034349;28;20260;-68
2024/03/13 00:38:58;;;;;;;18.25;8.77;;;;;;;4.21;100.00;96295.50;1039319;28;20314;-66
2024/03/13 00:39:47;;;;;;;17.10;8.30;;;;;;;4.18;100.00;96294.13;1039455;28;20783;-67
2024/03/13 00:40:37;;;;;;;21.08;9.52;;;;;;;4.20;100.00;96289.53;1039481;28;20860;-66
2024/03/13 00:41:26;;;;;;;19.33;9.45;;;;;;;4.19;100.00;96293.13;1043294;28;20875;-67
2024/03/13 00:42:16;;;;;;;22.08;8.75;;;;;;;4.19;100.00;96290.53;1039437;28;20340;-67
2024/03/13 00:43:05;;;;;;;19.45;9.00;;;;;;;4.18;100.00;96278.53;1039232;28;20332;-67
2024/03/13 00:43:54;;;;;;;16.42;8.57;;;;;;;4.16;100.00;96283.16;1043116;28;20325;-68
2024/03/13 00:44:43;;;;;;;19.20;9.80;;;;;;;4.15;100.00;96283.34;1042782;28;20390;-67
2024/03/13 00:45:33;;;;;;;22.17;9.27;;;;;;;4.14;100.00;96282.56;1043679;28;20267;-67
2024/03/13 00:46:25;;;;;;;20.23;9.68;;;;;;;4.13;100.00;96282.78;1040551;28;20266;-67
2024/03/13 00:47:14;;;;;;;19.73;9.52;;;;;;;4.09;100.00;96278.97;1041623;28;20272;-67
2024/03/13 00:48:04;;;;;;;17.73;9.18;;;;;;;4.13;100.00;96285.38;1038773;28;20267;-67
2024/03/13 00:48:54;;;;;;;18.50;8.63;;;;;;;4.14;100.00;96279.97;1039393;28;20112;-68
2024/03/13 00:49:43;;;;;;;22.48;9.07;;;;;;;4.13;100.00;96285.38;1040550;28;20278;-67
2024/03/13 00:50:35;;;;;;;20.55;9.43;;;;;;;4.12;100.00;96281.16;1039432;28;20271;-66
2024/03/13 00:51:24;;;;;;;18.38;8.68;;;;;;;4.12;100.00;96283.75;1043407;28;20279;-67
2024/03/13 00:52:13;;;;;;;23.52;8.48;;;;;;;4.11;100.00;96282.19;1039434;28;20287;-67
2024/03/13 00:53:03;;;;;;;22.60;9.55;;;;;;;4.12;100.00;96276.75;1034851;28;20935;-67
2024/03/13 00:53:52;;;;;;;20.08;8.40;;;;;;;4.08;100.00;96277.41;1038414;28;20271;-67
2024/03/13 00:54:46;;;;;;;17.08;8.75;;;;;;;4.11;100.00;96277.00;1035957;28;20260;-67
2024/03/13 00:55:35;;;;;;;18.38;8.65;;;;;;;4.06;100.00;96279.41;1039371;28;20311;-67
2024/03/13 00:56:29;;;;;;;17.20;8.38;;;;;;;4.09;100.00;96277.22;1037766;28;20286;-67
2024/03/13 00:57:18;;;;;;;18.13;8.85;;;;;;;4.09;100.00;96273.78;1036690;28;20319;-68
2024/03/13 00:58:08;;;;;;;20.15;9.07;;;;;;;4.10;100.00;96275.41;1043861;28;20806;-67
2024/03/13 00:58:57;;;;;;;19.98;9.10;;;;;;;4.09;100.00;96278.97;1043551;28;20270;-67
2024/03/13 00:59:46;;;;;;;24.95;9.73;;;;;;;4.09;100.00;96284.19;1039957;28;20283;-67
2024/03/13 01:00:37;;;;;;;19.58;9.63;;;;;;;4.10;100.00;96285.78;1039270;28;20262;-67
2024/03/13 01:01:25;;;;;;;20.83;9.52;;;;;;;4.03;100.00;96269.44;1041162;28;20299;-67
2024/03/13 01:02:15;;;;;;;17.15;8.27;;;;;;;4.09;100.00;96281.56;1035042;28;20041;-66
2024/03/13 01:03:04;;;;;;;18.25;8.93;;;;;;;3.91;100.00;96256.31;1031993;28;20800;-67
2024/03/13 01:03:59;;;;;;;18.92;8.13;;;;;;;4.05;100.00;96270.03;1038106;28;20272;-67
2024/03/13 01:04:49;;;;;;;19.38;9.43;;;;;;;4.07;100.00;96275.81;1035212;28;20322;-67
2024/03/13 01:05:40;;;;;;;16.33;8.55;;;;;;;4.06;100.00;96271.59;1035352;28;20748;-67
2024/03/13 01:06:29;;;;;;;21.30;8.88;;;;;;;3.99;100.00;96259.47;1040118;28;20258;-67
2024/03/13 01:07:18;;;;;;;20.38;9.48;;;;;;;4.01;100.00;96256.66;1035532;28;20364;-68
2024/03/13 01:08:07;;;;;;;21.45;9.20;;;;;;;4.05;100.00;96259.63;1027350;28;20338;-67
2024/03/13 01:08:57;;;;;;;17.35;8.82;;;;;;;4.06;100.00;96261.22;1033736;28;20444;-68
2024/03/13 01:09:46;;;;;;;17.95;8.55;;;;;;;4.05;100.00;96257.84;1030804;28;20773;-67
2024/03/13 01:10:35;;;;;;;19.83;8.73;;;;;;;4.08;100.00;96261.81;1030445;28;20346;-67
2024/03/13 01:11:27;;;;;;;19.67;9.02;;;;;;;4.05;100.00;96251.84;1038190;28;20267;-67
2024/03/13 01:12:19;;;;;;;20.13;9.02;;;;;;;4.04;100.00;96258.06;1041678;28;20306;-67
2024/03/13 01:13:08;;;;;;;22.08;9.88;;;;;;;4.04;100.00;96260.66;1036137;28;20264;-67
2024/03/13 01:13:57;;;;;;;18.85;8.65;;;;;;;4.01;100.00;96257.44;1036352;28;20287;-68
2024/03/13 01:14:46;;;;;;;21.90;8.98;;;;;;;4.00;100.00;96255.88;1039577;28;20316;-68
2024/03/13 01:15:35;;;;;;;19.83;9.40;;;;;;;4.00;100.00;96253.28;1036307;28;20251;-68
2024/03/13 01:16:25;;;;;;;19.85;8.80;;;;;;;3.99;100.00;96243.91;1039523;28;20335;-68
2024/03/13 01:17:15;;;;;;;17.65;9.35;;;;;;;3.99;100.00;96249.09;1036721;28;20340;-68
2024/03/13 01:18:04;;;;;;;18.35;9.20;;;;;;;3.95;100.00;96250.50;1038092;28;20452;-68
2024/03/13 01:18:53;;;;;;;20.63;9.77;;;;;;;4.01;100.00;96261.84;1034428;28;20315;-67
2024/03/13 01:19:42;;;;;;;19.00;9.38;;;;;;;4.01;100.00;96247.06;1038882;28;20545;-68
2024/03/13 01:20:31;;;;;;;20.13;9.45;;;;;;;3.96;100.00;96239.13;1038632;28;20386;-67
2024/03/13 01:21:22;;;;;;;21.27;8.55;;;;;;;4.00;100.00;96250.69;1039023;28;20434;-68
2024/03/13 01:22:17;;;;;;;19.33;8.90;;;;;;;3.99;100.00;96249.09;1039324;28;20323;-68
2024/03/13 01:23:06;;;;;;;18.30;9.23;;;;;;;3.98;100.00;96252.66;1041888;28;20456;-67
2024/03/13 01:23:55;;;;;;;21.55;9.48;;;;;;;4.00;100.00;96253.28;1043150;28;20258;-67
2024/03/13 01:24:45;;;;;;;16.42;8.57;;;;;;;3.99;100.00;96251.69;1043659;28;20262;-68
2024/03/13 01:25:34;;;;;;;21.05;8.82;;;;;;;3.96;100.00;96246.91;1043451;28;20247;-68
2024/03/13 01:26:24;;;;;;;17.98;9.27;;;;;;;4.02;100.00;96253.06;1035074;28;20052;-69
2024/03/13 01:27:13;;;;;;;17.83;9.07;;;;;;;4.04;100.00;96247.66;1035043;28;20267;-68
2024/03/13 01:28:04;;;;;;;22.35;9.77;;;;;;;4.04;100.00;96247.66;1040242;28;20449;-68
2024/03/13 01:28:53;;;;;;;18.60;9.02;;;;;;;4.03;100.00;96244.28;1043024;28;20716;-68
2024/03/13 01:29:46;;;;;;;19.35;8.65;;;;;;;4.03;100.00;96244.28;1042666;28;20154;-68
2024/03/13 01:30:35;;;;;;;17.02;8.52;;;;;;;4.03;100.00;96243.50;1034903;28;20913;-68
2024/03/13 01:31:26;;;;;;;16.10;9.10;;;;;;;4.01;100.00;96244.47;1032203;28;20252;-68
2024/03/13 01:32:16;;;;;;;19.70;9.20;;;;;;;4.05;100.00;96246.66;1038603;28;20455;-67
2024/03/13 01:33:05;;;;;;;21.52;8.98;;;;;;;4.02;100.00;96242.66;1040166;28;20615;-67
2024/03/13 01:33:55;;;;;;;16.75;9.23;;;;;;;4.07;100.00;96235.06;1033532;28;20256;-68
2024/03/13 01:34:46;;;;;;;16.17;8.68;;;;;;;4.07;100.00;96240.25;1031481;28;20293;-67
2024/03/13 01:35:35;;;;;;;19.52;9.10;;;;;;;4.07;100.00;96239.47;1034199;28;20116;-68
2024/03/13 01:37:55;;;;;;;19.95;9.05;;;;;;;4.07;100.00;96247.25;1042184;28;20110;-68
2024/03/13 01:38:41;;;;;;;18.98;9.57;;;;;;;4.03;100.00;96240.88;1035234;28;20836;-68
2024/03/13 01:39:30;;;;;;;15.32;7.90;;;;;;;4.00;100.00;96235.09;1033483;28;20663;-68
2024/03/13 01:40:25;;;;;;;20.27;9.48;;;;;;;3.94;100.00;96228.13;1039010;28;20337;-67
2024/03/13 01:55:28;;;;;;;12.77;7.18;;;;;;;3.91;100.00;96215.56;1035018;28;20271;-67
2024/03/13 01:56:27;;;;;;;16.77;7.78;;;;;;;3.91;100.00;96220.75;1039214;28;20327;-67
2024/03/13 01:57:17;;;;;;;17.17;7.15;;;;;;;3.92;100.00;96221.56;1038958;28;20302;-67
2024/03/13 01:59:02;;;;;;;16.45;6.55;;;;;;;3.91;100.00;96220.75;1030617;28;20641;-69
2024/03/13 02:02:24;;;;;;;13.77;6.78;;;;;;;3.93;100.00;96210.19;1038104;28;20244;-68
2024/03/13 02:03:14;;;;;;;14.18;7.35;;;;;;;3.89;100.00;96206.38;1031035;28;20309;-68
2024/03/13 02:04:03;;;;;;;14.80;6.88;;;;;;;3.87;100.00;96206.63;1030975;28;20393;-68
2024/03/13 02:04:53;;;;;;;13.77;6.78;;;;;;;3.89;100.00;96207.22;1042800;28;20670;-67
2024/03/13 02:05:43;;;;;;;14.02;7.32;;;;;;;3.87;100.00;96200.63;1039054;28;20382;-68
2024/03/13 02:06:32;;;;;;;13.32;5.93;;;;;;;3.87;100.00;96204.03;1039827;28;20563;-68
2024/03/13 02:07:22;;;;;;;12.85;6.93;;;;;;;3.87;100.00;96203.22;1035113;28;20276;-68
2024/03/13 02:08:14;;;;;;;11.77;6.68;;;;;;;3.86;100.00;96202.44;1034210;28;20935;-68
2024/03/13 02:09:03;;;;;;;12.52;7.03;;;;;;;3.90;100.00;96206.19;1030454;28;20160;-68
2024/03/13 02:09:54;;;;;;;12.77;6.82;;;;;;;3.90;100.00;96203.59;1030803;28;20264;-67
2024/03/13 02:10:43;;;;;;;13.02;6.38;;;;;;;3.90;100.00;96208.00;1036853;28;20252;-67
2024/03/13 02:11:32;;;;;;;12.10;6.35;;;;;;;3.91;100.00;96207.00;1043328;28;20278;-66
2024/03/13 02:12:21;;;;;;;13.63;7.32;;;;;;;3.88;100.00;96204.81;1043815;28;20262;-67
2024/03/13 02:13:11;;;;;;;14.20;6.85;;;;;;;3.91;100.00;96207.78;1043233;28;20262;-67
2024/03/13 02:14:04;;;;;;;15.43;8.02;;;;;;;3.89;100.00;96202.03;1038216;28;20355;-67
2024/03/13 02:14:53;;;;;;;12.05;6.43;;;;;;;3.89;100.00;96202.03;1039118;28;20548;-67
2024/03/13 02:15:43;;;;;;;15.65;6.63;;;;;;;3.87;100.00;96198.03;1039361;28;20299;-67
2024/03/13 02:16:31;;;;;;;16.05;7.00;;;;;;;3.86;100.00;96197.25;1035055;28;20323;-67
2024/03/13 02:17:21;;;;;;;15.73;6.95;;;;;;;3.90;100.00;96203.59;1037516;28;20291;-67
2024/03/13 02:18:16;;;;;;;12.40;6.55;;;;;;;3.89;100.00;96202.03;1039973;28;20346;-68
2024/03/13 02:19:06;;;;;;;10.30;6.47;;;;;;;3.89;100.00;96190.81;1037589;28;20791;-68
2024/03/13 02:19:57;;;;;;;13.52;6.75;;;;;;;3.91;100.00;96196.59;1035048;28;20283;-68
2024/03/13 02:20:47;;;;;;;14.57;6.72;;;;;;;3.90;100.00;96193.22;1038690;28;20581;-68
2024/03/13 02:21:36;;;;;;;14.57;6.20;;;;;;;3.90;100.00;96201.00;1034472;28;20136;-68
2024/03/13 02:22:25;;;;;;;13.57;7.15;;;;;;;3.88;100.00;96184.03;1034832;28;20269;-67
2024/03/13 02:23:20;;;;;;;16.63;7.28;;;;;;;3.87;100.00;96193.63;1033710;28;20705;-67
2024/03/13 02:24:09;;;;;;;11.63;6.25;;;;;;;3.89;100.00;96186.44;1028354;28;20257;-69
2024/03/13 02:24:58;;;;;;;13.02;6.28;;;;;;;3.89;100.00;96186.44;1035307;28;20443;-67
2024/03/13 02:25:48;;;;;;;16.15;7.13;;;;;;;3.91;100.00;96186.22;1030296;28;20284;-68
2024/03/13 02:26:40;;;;;;;12.35;6.57;;;;;;;3.93;100.00;96187.63;1034838;28;20259;-67
2024/03/13 02:27:29;;;;;;;12.65;6.43;;;;;;;3.92;100.00;96180.84;1039445;28;20363;-68
2024/03/13 02:28:29;;;;;;;13.65;6.53;;;;;;;3.86;100.00;96180.88;1039126;28;20880;-68
2024/03/13 02:29:19;;;;;;;12.77;6.07;;;;;;;3.82;100.00;96171.91;1037653;28;20304;-68
2024/03/13 02:30:08;;;;;;;13.43;6.38;;;;;;;3.87;100.00;96179.88;1034891;28;20048;-68
2024/03/13 02:30:57;;;;;;;12.45;6.35;;;;;;;3.90;100.00;96187.25;1034789;28;20256;-67
2024/03/13 02:31:46;;;;;;;13.38;6.13;;;;;;;3.88;100.00;96184.84;1032435;28;20288;-67
2024/03/13 02:32:36;;;;;;;10.55;5.85;;;;;;;3.85;100.00;96182.66;1035314;28;20672;-67
2024/03/13 02:33:25;;;;;;;13.80;5.95;;;;;;;3.88;100.00;96184.84;1042349;28;20287;-68
2024/03/13 02:34:16;;;;;;;12.27;5.63;;;;;;;3.89;100.00;96183.84;1039086;28;20332;-68
2024/03/13 02:35:05;;;;;;;13.88;6.10;;;;;;;3.90;100.00;96185.44;1033116;28;21146;-68
2024/03/13 02:35:54;;;;;;;10.52;6.38;;;;;;;3.89;100.00;96178.66;1031754;28;20065;-68
2024/03/13 02:36:46;;;;;;;12.15;6.55;;;;;;;3.87;100.00;96183.25;1038825;28;20263;-67
2024/03/13 02:37:40;;;;;;;10.88;5.80;;;;;;;3.82;100.00;96175.28;1038937;28;20815;-67
2024/03/13 02:38:28;;;;;;;11.95;6.40;;;;;;;3.83;100.00;96184.69;1035218;28;20376;-67
2024/03/13 02:39:18;;;;;;;10.25;5.80;;;;;;;3.80;100.00;96179.91;1034116;28;20349;-68
2024/03/13 02:40:09;;;;;;;9.85;4.95;;;;;;;3.82;100.00;96182.28;1039682;28;20350;-68
2024/03/13 02:40:58;;;;;;;11.30;6.18;;;;;;;3.80;100.00;96177.31;1042242;28;20267;-68
2024/03/13 02:41:47;;;;;;;11.10;4.90;;;;;;;3.79;100.00;96186.09;1039748;28;20259;-67
2024/03/13 02:42:37;;;;;;;11.30;5.40;;;;;;;3.79;100.00;96186.09;1042871;28;20250;-68
2024/03/13 02:43:26;;;;;;;8.52;4.47;;;;;;;3.76;100.00;96178.72;1039239;28;20685;-68
2024/03/13 02:44:17;;;;;;;12.30;5.40;;;;;;;3.76;100.00;96184.72;1035180;28;20084;-67
2024/03/13 02:45:06;;;;;;;8.95;5.15;;;;;;;3.76;100.00;96179.53;1031454;28;20785;-68
2024/03/13 02:45:55;;;;;;;9.52;5.40;;;;;;;3.71;100.00;96175.94;1036165;28;20048;-68
2024/03/13 02:46:44;;;;;;;7.40;4.43;;;;;;;3.74;100.00;96178.94;1030613;28;20253;-68
2024/03/13 02:47:33;;;;;;;10.30;5.22;;;;;;;3.71;100.00;96174.16;1027154;28;20340;-66
2024/03/13 02:48:22;;;;;;;8.02;4.68;;;;;;;3.74;100.00;96183.31;1029878;28;20310;-67
2024/03/13 02:49:11;;;;;;;10.55;5.22;;;;;;;3.73;100.00;96179.16;1037139;28;20439;-67
2024/03/13 02:50:01;;;;;;;8.93;4.82;;;;;;;3.71;100.00;96178.56;1038830;28;20287;-66
2024/03/13 02:50:50;;;;;;;8.45;5.10;;;;;;;3.74;100.00;96186.72;1032689;28;20776;-67
2024/03/13 02:51:40;;;;;;;9.73;5.25;;;;;;;3.73;100.00;96181.75;1031147;28;20261;-67
2024/03/13 02:52:29;;;;;;;9.05;4.85;;;;;;;3.76;100.00;96181.34;1038108;28;20264;-68
2024/03/13 02:53:18;;;;;;;8.60;5.18;;;;;;;3.76;100.00;96184.72;1033455;28;20311;-67
2024/03/13 02:54:08;;;;;;;8.45;4.93;;;;;;;3.75;100.00;96177.13;1038475;28;20478;-67
2024/03/13 02:54:57;;;;;;;9.02;5.25;;;;;;;3.73;100.00;96176.56;1035446;28;20331;-66
2024/03/13 02:55:47;;;;;;;10.25;4.53;;;;;;;3.65;100.00;96174.97;1038179;28;20071;-68
2024/03/13 02:56:36;;;;;;;8.25;5.07;;;;;;;3.67;100.00;96167.78;1039341;28;20263;-68
2024/03/13 02:57:25;;;;;;;9.38;5.20;;;;;;;3.68;100.00;96174.56;1042918;28;20041;-67
2024/03/13 02:58:14;;;;;;;7.20;4.80;;;;;;;3.71;100.00;96173.34;1033636;28;20877;-68
2024/03/13 02:59:03;;;;;;;10.07;5.35;;;;;;;3.71;100.00;96170.75;1031523;28;20373;-67
2024/03/13 02:59:53;;;;;;;11.10;5.07;;;;;;;3.72;100.00;96174.94;1032679;28;20276;-67
2024/03/13 03:00:44;;;;;;;13.02;6.10;;;;;;;3.73;100.00;96173.97;1031198;28;20793;-68
2024/03/13 03:01:33;;;;;;;10.27;5.47;;;;;;;3.60;100.00;96153.28;1043323;28;20626;-67
2024/03/13 03:02:22;;;;;;;7.63;4.63;;;;;;;3.76;100.00;96182.13;1040025;28;20651;-68
2024/03/13 03:03:13;;;;;;;9.57;5.65;;;;;;;3.71;100.00;96175.94;1040982;28;20328;-67
2024/03/13 03:04:02;;;;;;;11.23;5.13;;;;;;;3.72;100.00;96170.56;1043028;28;20262;-67
2024/03/13 03:04:51;;;;;;;9.15;5.10;;;;;;;3.71;100.00;96174.16;1039333;28;20114;-67
2024/03/13 03:05:40;;;;;;;11.52;5.25;;;;;;;3.72;100.00;96180.13;1031182;28;20272;-67
2024/03/13 03:06:29;;;;;;;8.52;4.68;;;;;;;3.68;100.00;96171.19;1034372;28;20271;-68
2024/03/13 03:07:18;;;;;;;9.15;4.50;;;;;;;3.67;100.00;96167.78;1036077;28;20259;-67
2024/03/13 03:08:07;;;;;;;7.20;4.45;;;;;;;3.61;100.00;96160.84;1038524;28;20887;-67
2024/03/13 03:08:57;;;;;;;9.27;4.82;;;;;;;3.66;100.00;96160.22;1034734;28;20820;-67
2024/03/13 03:09:46;;;;;;;7.03;4.43;;;;;;;3.69;100.00;96163.19;1035343;28;21041;-68
2024/03/13 03:10:35;;;;;;;7.60;4.53;;;;;;;3.70;100.00;96158.81;1038920;28;20338;-66
2024/03/13 03:11:25;;;;;;;9.27;4.15;;;;;;;3.68;100.00;96158.19;1042767;28;20358;-67
2024/03/13 03:12:14;;;;;;;6.05;4.00;;;;;;;3.67;100.00;96159.22;1041401;28;20247;-68
2024/03/13 03:13:04;;;;;;;5.40;3.72;;;;;;;3.66;100.00;96160.22;1039165;28;20286;-67
2024/03/13 03:13:53;;;;;;;5.65;3.75;;;;;;;3.66;100.00;96160.22;1031374;28;20581;-68
2024/03/13 03:14:42;;;;;;;6.35;3.90;;;;;;;3.64;100.00;96157.03;1034735;28;20578;-67
2024/03/13 03:15:34;;;;;;;8.20;3.78;;;;;;;3.65;100.00;96161.22;1035072;28;20257;-67
2024/03/13 03:16:23;;;;;;;7.65;3.78;;;;;;;3.62;100.00;96161.63;1034137;28;20376;-67
2024/03/13 03:17:14;;;;;;;6.00;3.47;;;;;;;3.62;100.00;96164.22;1036396;28;20251;-67
2024/03/13 03:18:03;;;;;;;7.47;3.67;;;;;;;3.60;100.00;96166.25;1043431;28;20290;-67
2024/03/13 03:18:53;;;;;;;5.30;3.08;;;;;;;3.57;100.00;96166.66;1040405;28;20565;-67
2024/03/13 03:19:42;;;;;;;6.07;3.25;;;;;;;3.58;100.00;96160.47;1036083;28;20318;-65
2024/03/13 03:20:31;;;;;;;5.75;3.22;;;;;;;3.60;100.00;96166.25;1035972;28;20347;-68
2024/03/13 03:21:22;;;;;;;4.30;3.08;;;;;;;3.59;100.00;96162.03;1038567;28;20390;-67
2024/03/13 03:22:12;;;;;;;6.13;3.42;;;;;;;3.58;100.00;96168.25;1040139;28;20334;-67
2024/03/13 03:23:01;;;;;;;6.38;3.38;;;;;;;3.58;100.00;96163.84;1040934;28;20282;-66
2024/03/13 03:23:50;;;;;;;5.43;3.25;;;;;;;3.57;100.00;96161.47;1040961;28;20360;-66
2024/03/13 03:24:39;;;;;;;6.85;3.33;;;;;;;3.56;100.00;96159.88;1041702;28;20286;-68
2024/03/13 03:25:28;;;;;;;6.05;3.25;;;;;;;3.58;100.00;96158.66;1041095;28;20688;-67
2024/03/13 03:26:20;;;;;;;5.10;3.22;;;;;;;3.59;100.00;96160.25;1040047;28;20645;-67
2024/03/13 03:27:10;;;;;;;6.78;3.60;;;;;;;3.57;100.00;96162.25;1035717;28;20992;-66
2024/03/13 03:27:59;;;;;;;7.30;3.35;;;;;;;3.57;100.00;96158.88;1032703;28;20315;-66
2024/03/13 03:28:48;;;;;;;4.13;2.80;;;;;;;3.56;100.00;96162.47;1032685;28;20272;-66
2024/03/13 03:29:39;;;;;;;4.15;2.67;;;;;;;3.53;100.00;96161.09;1034976;28;20287;-68
2024/03/13 03:30:30;;;;;;;5.28;2.58;;;;;;;3.54;100.00;96160.88;1039426;28;20622;-67
2024/03/13 03:31:19;;;;;;;3.08;2.25;;;;;;;3.53;100.00;96153.31;1039547;28;20334;-68
2024/03/13 03:32:09;;;;;;;2.85;2.05;;;;;;;3.47;100.00;96156.72;1031369;28;20402;-67
2024/03/13 03:33:00;;;;;;;1.85;1.48;;;;;;;3.44;100.00;96152.75;1031658;28;20336;-67
2024/03/13 03:33:51;;;;;;;4.13;1.88;;;;;;;3.47;100.00;96157.50;1036826;28;20260;-68
2024/03/13 03:34:40;;;;;;;2.13;1.25;;;;;;;3.43;100.00;96171.13;1044063;28;20349;-68
2024/03/13 03:35:29;;;;;;;1.55;1.05;;;;;;;3.35;100.00;96164.34;1039326;28;20401;-67
2024/03/13 03:36:19;;;;;;;1.50;1.20;;;;;;;3.34;100.00;96165.34;1031272;28;20264;-68
2024/03/13 03:37:08;;;;;;;1.45;1.02;;;;;;;3.36;100.00;96171.16;1035180;28;20276;-67
2024/03/13 03:37:58;;;;;;;3.05;1.20;;;;;;;3.36;100.00;96171.16;1041989;28;20604;-68
2024/03/13 03:38:47;;;;;;;0.90;0.70;;;;;;;3.28;100.00;96161.78;1039825;28;20346;-68
2024/03/13 03:39:38;;;;;;;1.20;1.10;;;;;;;3.28;100.00;96169.56;1035575;28;20268;-67
2024/03/13 03:40:30;;;;;;;0.98;0.77;;;;;;;3.34;100.00;96170.53;1034995;28;20397;-68
2024/03/13 03:41:19;;;;;;;0.77;0.60;;;;;;;3.25;100.00;96162.22;1039098;28;20044;-68
2024/03/13 03:42:08;;;;;;;1.73;1.10;;;;;;;3.21;100.00;96155.03;1039553;28;20685;-67
2024/03/13 03:42:58;;;;;;;0.50;0.50;;;;;;;3.27;100.00;96162.78;1034359;28;20260;-68
2024/03/13 03:43:47;;;;;;;0.73;0.52;;;;;;;3.24;100.00;96167.59;1035611;28;20838;-67
2024/03/13 03:44:36;;;;;;;0.98;0.73;;;;;;;3.25;100.00;96169.16;1035042;28;20068;-67
2024/03/13 03:45:26;;;;;;;0.80;0.70;;;;;;;3.23;100.00;96166.00;1035540;28;20733;-68
2024/03/13 03:46:15;;;;;;;0.47;0.32;;;;;;;3.20;100.00;96166.41;1033484;28;20323;-67
2024/03/13 03:47:04;;;;;;;0.68;0.50;;;;;;;3.20;100.00;96166.41;1035408;28;20343;-67
2024/03/13 03:47:53;;;;;;;1.05;0.77;;;;;;;3.17;100.00;96162.44;1042142;28;20287;-67
2024/03/13 03:48:42;;;;;;;1.02;0.60;;;;;;;3.19;100.00;96162.25;1036510;28;20260;-67
2024/03/13 03:49:31;;;;;;;0.77;0.50;;;;;;;3.20;100.00;96164.63;1039890;28;20264;-67
2024/03/13 03:50:20;;;;;;;0.85;0.50;;;;;;;3.10;100.00;96151.28;1043220;28;20262;-66
2024/03/13 03:51:16;;;;;;;0.35;0.35;;;;;;;3.13;100.00;96160.47;1047041;28;20388;-67
2024/03/13 03:52:05;;;;;;;0.50;0.40;;;;;;;3.10;100.00;96166.84;1044065;28;20629;-68
2024/03/13 03:52:54;;;;;;;0.40;0.30;;;;;;;3.11;100.00;96168.44;1036556;28;21117;-67
2024/03/13 03:53:44;;;;;;;0.40;0.40;;;;;;;3.12;100.00;96171.81;1036520;28;20283;-68
2024/03/13 03:54:36;;;;;;;1.17;0.50;;;;;;;3.13;100.00;96165.66;1042977;28;20759;-67
2024/03/13 03:55:26;;;;;;;0.63;0.50;;;;;;;3.13;100.00;96165.66;1043885;28;20081;-66
2024/03/13 03:56:14;;;;;;;0.52;0.50;;;;;;;3.06;100.00;96160.47;1039406;28;20933;-67
2024/03/13 03:57:03;;;;;;;1.65;0.45;;;;;;;3.09;100.00;96164.47;1035097;28;20367;-68
2024/03/13 03:57:53;;;;;;;0.85;0.68;;;;;;;3.12;100.00;96166.63;1034596;28;20392;-67
2024/03/13 03:58:45;;;;;;;4.13;0.57;;;;;;;3.11;100.00;96173.59;1034886;28;20400;-67
2024/03/13 03:59:38;;;;;;;0.40;0.30;;;;;;;3.06;100.00;96166.47;1035269;28;20248;-67
2024/03/13 04:00:30;;;;;;;0.50;0.50;;;;;;;3.10;100.00;96176.41;1035238;28;20628;-67
2024/03/13 04:01:19;;;;;;;0.38;0.25;;;;;;;3.08;100.00;96176.59;1039417;28;20409;-67
2024/03/13 04:02:08;;;;;;;0.50;0.30;;;;;;;3.07;100.00;96172.44;1036514;28;20280;-67
2024/03/13 04:02:57;;;;;;;0.40;0.35;;;;;;;3.03;100.00;96177.22;1035917;28;20755;-68
2024/03/13 04:03:49;;;;;;;0.17;0.17;;;;;;;3.00;100.00;96167.28;1038788;28;20338;-68
2024/03/13 04:04:39;;;;;;;0.20;0.20;;;;;;;3.01;100.00;96168.84;1039640;28;20302;-67
2024/03/13 04:05:28;;;;;;;0.30;0.30;;;;;;;3.00;100.00;96175.03;1040007;28;20308;-68
2024/03/13 04:06:17;;;;;;;0.15;0.15;;;;;;;3.00;100.00;96167.28;1037267;28;20260;-68
2024/03/13 04:07:07;;;;;;;0.45;0.28;;;;;;;3.00;100.00;96166.47;1036378;28;20672;-68
2024/03/13 04:07:58;;;;;;;0.38;0.20;;;;;;;3.01;100.00;96174.03;1041050;28;20369;-67
2024/03/13 04:08:47;;;;;;;0.40;0.20;;;;;;;2.99;100.00;96168.28;1040205;28;20056;-69
2024/03/13 04:09:37;;;;;;;0.17;0.17;;;;;;;2.98;100.00;96173.66;1037118;28;20486;-67
2024/03/13 04:10:25;;;;;;;0.30;0.30;;;;;;;2.98;100.00;96171.84;1035607;28;20312;-68
2024/03/13 04:11:15;;;;;;;0.85;0.40;;;;;;;2.97;100.00;96178.03;1035470;28;20839;-68
2024/03/13 04:12:05;;;;;;;0.55;0.30;;;;;;;2.96;100.00;96173.06;1034557;28;20279;-67
2024/03/13 04:12:54;;;;;;;0.25;0.20;;;;;;;2.89;100.00;96167.91;1039862;28;20778;-67